sensor_id;sensor_type;location;lat;lon;timestamp;temperature;humidity
81524;DHT22;70954;49.500;10.416;2024-03-02T00:02:07;8.60;64.50
81524;DHT22;70954;49.500;10.416;2024-03-02T00:04:34;8.60;64.50
81524;DHT22;70954;49.500;10.416;2024-03-02T00:06:59;8.60;64.50
81524;DHT22;70954;49.500;10.416;2024-03-02T00:09:25;8.60;64.60
81524;DHT22;70954;49.500;10.416;2024-03-02T00:11:50;8.60;64.60
81524;DHT22;70954;49.500;10.416;2024-03-02T00:14:16;8.60;64.60
81524;DHT22;70954;49.500;10.416;2024-03-02T00:16:42;8.50;64.70
81524;DHT22;70954;49.500;10.416;2024-03-02T00:19:09;8.50;64.70
81524;DHT22;70954;49.500;10.416;2024-03-02T00:21:34;8.50;64.70
81524;DHT22;70954;49.500;10.416;2024-03-02T00:24:00;8.50;64.80
81524;DHT22;70954;49.500;10.416;2024-03-02T00:26:26;8.50;64.90
81524;DHT22;70954;49.500;10.416;2024-03-02T00:28:54;8.50;65.00
81524;DHT22;70954;49.500;10.416;2024-03-02T00:31:20;8.50;65.10
81524;DHT22;70954;49.500;10.416;2024-03-02T00:33:49;8.50;65.10
81524;DHT22;70954;49.500;10.416;2024-03-02T00:36:27;8.40;65.20
81524;DHT22;70954;49.500;10.416;2024-03-02T00:38:53;8.40;65.50
81524;DHT22;70954;49.500;10.416;2024-03-02T00:44:02;8.40;65.40
81524;DHT22;70954;49.500;10.416;2024-03-02T00:46:29;8.40;65.60
81524;DHT22;70954;49.500;10.416;2024-03-02T00:48:59;8.40;65.70
81524;DHT22;70954;49.500;10.416;2024-03-02T00:51:29;8.40;65.70
81524;DHT22;70954;49.500;10.416;2024-03-02T00:53:57;8.40;65.70
81524;DHT22;70954;49.500;10.416;2024-03-02T00:56:24;8.50;65.80
81524;DHT22;70954;49.500;10.416;2024-03-02T00:58:50;8.50;65.90
81524;DHT22;70954;49.500;10.416;2024-03-02T01:01:16;8.50;65.90
81524;DHT22;70954;49.500;10.416;2024-03-02T01:03:42;8.50;65.90
81524;DHT22;70954;49.500;10.416;2024-03-02T01:06:08;8.50;65.90
81524;DHT22;70954;49.500;10.416;2024-03-02T01:08:34;8.60;65.90
81524;DHT22;70954;49.500;10.416;2024-03-02T01:11:00;8.60;65.80
81524;DHT22;70954;49.500;10.416;2024-03-02T01:13:25;8.60;65.80
81524;DHT22;70954;49.500;10.416;2024-03-02T01:15:51;8.60;65.70
81524;DHT22;70954;49.500;10.416;2024-03-02T01:18:16;8.60;65.70
81524;DHT22;70954;49.500;10.416;2024-03-02T01:20:42;8.60;65.60
81524;DHT22;70954;49.500;10.416;2024-03-02T01:23:07;8.60;65.50
81524;DHT22;70954;49.500;10.416;2024-03-02T01:25:33;8.60;65.50
81524;DHT22;70954;49.500;10.416;2024-03-02T01:27:58;8.60;65.40
81524;DHT22;70954;49.500;10.416;2024-03-02T01:30:23;8.60;65.20
81524;DHT22;70954;49.500;10.416;2024-03-02T01:32:49;8.60;65.20
81524;DHT22;70954;49.500;10.416;2024-03-02T01:35:14;8.60;65.10
81524;DHT22;70954;49.500;10.416;2024-03-02T01:37:40;8.60;65.10
81524;DHT22;70954;49.500;10.416;2024-03-02T01:40:06;8.50;65.00
81524;DHT22;70954;49.500;10.416;2024-03-02T01:42:32;8.50;65.00
81524;DHT22;70954;49.500;10.416;2024-03-02T01:44:57;8.50;65.10
81524;DHT22;70954;49.500;10.416;2024-03-02T01:47:23;8.50;65.10
81524;DHT22;70954;49.500;10.416;2024-03-02T01:49:48;8.50;65.10
81524;DHT22;70954;49.500;10.416;2024-03-02T01:52:14;8.40;65.10
81524;DHT22;70954;49.500;10.416;2024-03-02T01:54:39;8.40;65.10
81524;DHT22;70954;49.500;10.416;2024-03-02T01:57:04;8.40;65.10
81524;DHT22;70954;49.500;10.416;2024-03-02T01:59:30;8.40;65.10
81524;DHT22;70954;49.500;10.416;2024-03-02T02:01:55;8.40;65.10
81524;DHT22;70954;49.500;10.416;2024-03-02T02:04:21;8.30;65.10
81524;DHT22;70954;49.500;10.416;2024-03-02T02:06:46;8.30;65.20
81524;DHT22;70954;49.500;10.416;2024-03-02T02:09:12;8.30;65.30
81524;DHT22;70954;49.500;10.416;2024-03-02T02:11:37;8.30;65.40
81524;DHT22;70954;49.500;10.416;2024-03-02T02:14:03;8.30;65.50
81524;DHT22;70954;49.500;10.416;2024-03-02T02:16:28;8.30;65.60
81524;DHT22;70954;49.500;10.416;2024-03-02T02:18:54;8.20;65.60
81524;DHT22;70954;49.500;10.416;2024-03-02T02:21:22;8.20;65.70
81524;DHT22;70954;49.500;10.416;2024-03-02T02:23:48;8.20;65.70
81524;DHT22;70954;49.500;10.416;2024-03-02T02:26:14;8.20;65.70
81524;DHT22;70954;49.500;10.416;2024-03-02T02:28:39;8.20;65.70
81524;DHT22;70954;49.500;10.416;2024-03-02T02:31:04;8.20;65.70
81524;DHT22;70954;49.500;10.416;2024-03-02T02:33:30;8.20;65.60
81524;DHT22;70954;49.500;10.416;2024-03-02T02:35:55;8.20;65.70
81524;DHT22;70954;49.500;10.416;2024-03-02T02:38:21;8.20;65.70
81524;DHT22;70954;49.500;10.416;2024-03-02T02:40:46;8.20;65.70
81524;DHT22;70954;49.500;10.416;2024-03-02T02:43:12;8.20;65.70
81524;DHT22;70954;49.500;10.416;2024-03-02T02:45:37;8.20;65.80
81524;DHT22;70954;49.500;10.416;2024-03-02T02:48:03;8.20;65.90
81524;DHT22;70954;49.500;10.416;2024-03-02T02:50:28;8.20;65.90
81524;DHT22;70954;49.500;10.416;2024-03-02T02:52:54;8.20;66.00
81524;DHT22;70954;49.500;10.416;2024-03-02T02:55:19;8.20;66.10
81524;DHT22;70954;49.500;10.416;2024-03-02T02:57:45;8.20;66.10
81524;DHT22;70954;49.500;10.416;2024-03-02T03:00:15;8.20;66.10
81524;DHT22;70954;49.500;10.416;2024-03-02T03:02:45;8.20;66.20
81524;DHT22;70954;49.500;10.416;2024-03-02T03:05:12;8.20;66.20
81524;DHT22;70954;49.500;10.416;2024-03-02T03:07:42;8.20;66.10
81524;DHT22;70954;49.500;10.416;2024-03-02T03:10:08;8.20;66.10
81524;DHT22;70954;49.500;10.416;2024-03-02T03:12:34;8.10;66.50
81524;DHT22;70954;49.500;10.416;2024-03-02T03:15:00;8.20;66.10
81524;DHT22;70954;49.500;10.416;2024-03-02T03:17:26;8.20;66.10
81524;DHT22;70954;49.500;10.416;2024-03-02T03:19:51;8.20;66.10
81524;DHT22;70954;49.500;10.416;2024-03-02T03:22:17;8.20;66.20
81524;DHT22;70954;49.500;10.416;2024-03-02T03:24:42;8.20;66.20
81524;DHT22;70954;49.500;10.416;2024-03-02T03:27:08;8.20;66.30
81524;DHT22;70954;49.500;10.416;2024-03-02T03:29:36;8.20;66.20
81524;DHT22;70954;49.500;10.416;2024-03-02T03:32:01;8.20;66.20
81524;DHT22;70954;49.500;10.416;2024-03-02T03:34:27;8.20;66.20
81524;DHT22;70954;49.500;10.416;2024-03-02T03:36:52;8.20;66.30
81524;DHT22;70954;49.500;10.416;2024-03-02T03:39:17;8.20;66.20
81524;DHT22;70954;49.500;10.416;2024-03-02T03:41:43;8.20;66.20
81524;DHT22;70954;49.500;10.416;2024-03-02T03:44:08;8.20;66.30
81524;DHT22;70954;49.500;10.416;2024-03-02T03:46:34;8.20;66.40
81524;DHT22;70954;49.500;10.416;2024-03-02T03:48:59;8.20;66.40
81524;DHT22;70954;49.500;10.416;2024-03-02T03:51:25;8.20;66.50
81524;DHT22;70954;49.500;10.416;2024-03-02T03:53:50;8.20;66.50
81524;DHT22;70954;49.500;10.416;2024-03-02T03:56:15;8.20;66.50
81524;DHT22;70954;49.500;10.416;2024-03-02T03:58:41;8.20;66.50
81524;DHT22;70954;49.500;10.416;2024-03-02T04:01:06;8.20;66.50
81524;DHT22;70954;49.500;10.416;2024-03-02T04:03:32;8.20;66.50
81524;DHT22;70954;49.500;10.416;2024-03-02T04:05:57;8.20;66.60
81524;DHT22;70954;49.500;10.416;2024-03-02T04:08:23;8.20;66.60
81524;DHT22;70954;49.500;10.416;2024-03-02T04:10:48;8.20;66.50
81524;DHT22;70954;49.500;10.416;2024-03-02T04:13:14;8.20;66.50
81524;DHT22;70954;49.500;10.416;2024-03-02T04:15:39;8.20;66.50
81524;DHT22;70954;49.500;10.416;2024-03-02T04:18:05;8.20;66.50
81524;DHT22;70954;49.500;10.416;2024-03-02T04:20:30;8.20;66.50
81524;DHT22;70954;49.500;10.416;2024-03-02T04:22:56;8.20;66.50
81524;DHT22;70954;49.500;10.416;2024-03-02T04:25:21;8.20;66.50
81524;DHT22;70954;49.500;10.416;2024-03-02T04:27:46;8.20;66.50
81524;DHT22;70954;49.500;10.416;2024-03-02T04:30:12;8.20;66.50
81524;DHT22;70954;49.500;10.416;2024-03-02T04:32:38;8.20;66.40
81524;DHT22;70954;49.500;10.416;2024-03-02T04:35:03;8.20;66.40
81524;DHT22;70954;49.500;10.416;2024-03-02T04:37:29;8.20;66.40
81524;DHT22;70954;49.500;10.416;2024-03-02T04:39:54;8.20;66.30
81524;DHT22;70954;49.500;10.416;2024-03-02T04:42:20;8.20;66.30
81524;DHT22;70954;49.500;10.416;2024-03-02T04:44:45;8.10;66.20
81524;DHT22;70954;49.500;10.416;2024-03-02T04:47:11;8.10;66.20
81524;DHT22;70954;49.500;10.416;2024-03-02T04:49:36;8.10;66.10
81524;DHT22;70954;49.500;10.416;2024-03-02T04:52:02;8.10;66.00
81524;DHT22;70954;49.500;10.416;2024-03-02T04:54:27;8.00;66.00
81524;DHT22;70954;49.500;10.416;2024-03-02T04:56:53;8.00;65.90
81524;DHT22;70954;49.500;10.416;2024-03-02T04:59:18;8.00;66.00
81524;DHT22;70954;49.500;10.416;2024-03-02T05:01:44;8.00;66.00
81524;DHT22;70954;49.500;10.416;2024-03-02T05:04:10;8.00;66.00
81524;DHT22;70954;49.500;10.416;2024-03-02T05:06:36;8.00;66.00
81524;DHT22;70954;49.500;10.416;2024-03-02T05:09:01;7.90;66.10
81524;DHT22;70954;49.500;10.416;2024-03-02T05:11:26;7.80;66.10
81524;DHT22;70954;49.500;10.416;2024-03-02T05:13:52;7.80;66.20
81524;DHT22;70954;49.500;10.416;2024-03-02T05:16:17;7.80;66.30
81524;DHT22;70954;49.500;10.416;2024-03-02T05:18:43;7.80;66.40
81524;DHT22;70954;49.500;10.416;2024-03-02T05:21:08;7.80;66.40
81524;DHT22;70954;49.500;10.416;2024-03-02T05:23:34;7.70;66.40
81524;DHT22;70954;49.500;10.416;2024-03-02T05:25:59;7.70;66.40
81524;DHT22;70954;49.500;10.416;2024-03-02T05:28:24;7.60;66.50
81524;DHT22;70954;49.500;10.416;2024-03-02T05:30:50;7.60;66.50
81524;DHT22;70954;49.500;10.416;2024-03-02T05:33:15;7.60;66.50
81524;DHT22;70954;49.500;10.416;2024-03-02T05:35:41;7.60;66.50
81524;DHT22;70954;49.500;10.416;2024-03-02T05:38:06;7.60;66.50
81524;DHT22;70954;49.500;10.416;2024-03-02T05:40:32;7.60;66.50
81524;DHT22;70954;49.500;10.416;2024-03-02T05:42:57;7.50;66.60
81524;DHT22;70954;49.500;10.416;2024-03-02T05:45:22;7.50;66.60
81524;DHT22;70954;49.500;10.416;2024-03-02T05:47:48;7.50;66.70
81524;DHT22;70954;49.500;10.416;2024-03-02T05:50:13;7.50;66.70
81524;DHT22;70954;49.500;10.416;2024-03-02T05:52:39;7.50;66.70
81524;DHT22;70954;49.500;10.416;2024-03-02T05:55:05;7.50;66.80
81524;DHT22;70954;49.500;10.416;2024-03-02T05:57:30;7.50;66.70
81524;DHT22;70954;49.500;10.416;2024-03-02T05:59:56;7.40;66.70
81524;DHT22;70954;49.500;10.416;2024-03-02T06:02:21;7.40;66.70
81524;DHT22;70954;49.500;10.416;2024-03-02T06:04:47;7.40;66.80
81524;DHT22;70954;49.500;10.416;2024-03-02T06:07:12;7.40;66.80
81524;DHT22;70954;49.500;10.416;2024-03-02T06:09:38;7.40;66.80
81524;DHT22;70954;49.500;10.416;2024-03-02T06:12:03;7.30;66.80
81524;DHT22;70954;49.500;10.416;2024-03-02T06:14:29;7.30;66.80
81524;DHT22;70954;49.500;10.416;2024-03-02T06:16:54;7.20;66.80
81524;DHT22;70954;49.500;10.416;2024-03-02T06:19:20;7.20;66.90
81524;DHT22;70954;49.500;10.416;2024-03-02T06:21:46;7.20;66.90
81524;DHT22;70954;49.500;10.416;2024-03-02T06:24:11;7.20;67.00
81524;DHT22;70954;49.500;10.416;2024-03-02T06:26:37;7.20;67.20
81524;DHT22;70954;49.500;10.416;2024-03-02T06:29:02;7.20;67.20
81524;DHT22;70954;49.500;10.416;2024-03-02T06:31:28;7.20;67.20
81524;DHT22;70954;49.500;10.416;2024-03-02T06:33:53;7.20;67.30
81524;DHT22;70954;49.500;10.416;2024-03-02T06:36:18;7.20;67.30
81524;DHT22;70954;49.500;10.416;2024-03-02T06:38:44;7.20;67.40
81524;DHT22;70954;49.500;10.416;2024-03-02T06:41:09;7.20;67.50
81524;DHT22;70954;49.500;10.416;2024-03-02T06:43:35;7.20;67.60
81524;DHT22;70954;49.500;10.416;2024-03-02T06:46:00;7.20;67.70
81524;DHT22;70954;49.500;10.416;2024-03-02T06:48:26;7.20;67.80
81524;DHT22;70954;49.500;10.416;2024-03-02T06:50:51;7.20;67.90
81524;DHT22;70954;49.500;10.416;2024-03-02T06:53:17;7.20;68.20
81524;DHT22;70954;49.500;10.416;2024-03-02T06:55:42;7.30;68.20
81524;DHT22;70954;49.500;10.416;2024-03-02T06:58:07;7.30;68.50
81524;DHT22;70954;49.500;10.416;2024-03-02T07:00:33;7.40;68.60
81524;DHT22;70954;49.500;10.416;2024-03-02T07:02:58;7.40;68.60
81524;DHT22;70954;49.500;10.416;2024-03-02T07:05:24;7.50;68.60
81524;DHT22;70954;49.500;10.416;2024-03-02T07:07:49;7.50;68.70
81524;DHT22;70954;49.500;10.416;2024-03-02T07:10:15;7.50;68.80
81524;DHT22;70954;49.500;10.416;2024-03-02T07:12:40;7.60;68.80
81524;DHT22;70954;49.500;10.416;2024-03-02T07:15:06;7.60;68.80
81524;DHT22;70954;49.500;10.416;2024-03-02T07:17:32;7.70;68.80
81524;DHT22;70954;49.500;10.416;2024-03-02T07:19:57;7.80;68.80
81524;DHT22;70954;49.500;10.416;2024-03-02T07:22:23;7.80;68.80
81524;DHT22;70954;49.500;10.416;2024-03-02T07:24:49;7.90;68.70
81524;DHT22;70954;49.500;10.416;2024-03-02T07:27:15;8.00;68.70
81524;DHT22;70954;49.500;10.416;2024-03-02T07:29:41;8.00;68.80
81524;DHT22;70954;49.500;10.416;2024-03-02T07:32:07;8.00;68.70
81524;DHT22;70954;49.500;10.416;2024-03-02T07:34:33;8.10;68.70
81524;DHT22;70954;49.500;10.416;2024-03-02T07:36:58;8.10;68.70
81524;DHT22;70954;49.500;10.416;2024-03-02T07:39:24;8.20;68.70
81524;DHT22;70954;49.500;10.416;2024-03-02T07:41:50;8.20;68.70
81524;DHT22;70954;49.500;10.416;2024-03-02T07:44:16;8.30;68.80
81524;DHT22;70954;49.500;10.416;2024-03-02T07:46:45;8.40;69.00
81524;DHT22;70954;49.500;10.416;2024-03-02T07:49:11;8.40;69.00
81524;DHT22;70954;49.500;10.416;2024-03-02T07:51:36;8.50;69.30
81524;DHT22;70954;49.500;10.416;2024-03-02T07:54:02;8.60;69.20
81524;DHT22;70954;49.500;10.416;2024-03-02T07:56:27;8.60;69.20
81524;DHT22;70954;49.500;10.416;2024-03-02T07:58:53;8.80;69.20
81524;DHT22;70954;49.500;10.416;2024-03-02T08:01:18;8.80;69.20
81524;DHT22;70954;49.500;10.416;2024-03-02T08:03:44;8.90;69.20
81524;DHT22;70954;49.500;10.416;2024-03-02T08:06:10;9.00;69.10
81524;DHT22;70954;49.500;10.416;2024-03-02T08:08:35;9.10;69.10
81524;DHT22;70954;49.500;10.416;2024-03-02T08:11:00;9.20;69.20
81524;DHT22;70954;49.500;10.416;2024-03-02T08:13:26;9.30;69.20
81524;DHT22;70954;49.500;10.416;2024-03-02T08:15:51;9.40;69.00
81524;DHT22;70954;49.500;10.416;2024-03-02T08:18:18;9.40;69.00
81524;DHT22;70954;49.500;10.416;2024-03-02T08:20:44;9.50;68.80
81524;DHT22;70954;49.500;10.416;2024-03-02T08:23:10;9.60;68.90
81524;DHT22;70954;49.500;10.416;2024-03-02T08:25:35;9.70;68.80
81524;DHT22;70954;49.500;10.416;2024-03-02T08:28:01;9.80;68.80
81524;DHT22;70954;49.500;10.416;2024-03-02T08:30:26;10.00;68.70
81524;DHT22;70954;49.500;10.416;2024-03-02T08:32:52;10.00;68.60
81524;DHT22;70954;49.500;10.416;2024-03-02T08:35:17;10.10;68.50
81524;DHT22;70954;49.500;10.416;2024-03-02T08:37:42;10.20;68.30
81524;DHT22;70954;49.500;10.416;2024-03-02T08:40:08;10.30;68.20
81524;DHT22;70954;49.500;10.416;2024-03-02T08:42:34;10.40;68.00
81524;DHT22;70954;49.500;10.416;2024-03-02T08:45:00;10.50;67.90
81524;DHT22;70954;49.500;10.416;2024-03-02T08:47:25;10.60;67.80
81524;DHT22;70954;49.500;10.416;2024-03-02T08:49:51;10.70;67.70
81524;DHT22;70954;49.500;10.416;2024-03-02T08:52:16;10.80;67.60
81524;DHT22;70954;49.500;10.416;2024-03-02T08:54:42;10.90;67.60
81524;DHT22;70954;49.500;10.416;2024-03-02T08:57:07;11.00;67.50
81524;DHT22;70954;49.500;10.416;2024-03-02T08:59:33;11.10;67.50
81524;DHT22;70954;49.500;10.416;2024-03-02T09:01:59;11.20;67.30
81524;DHT22;70954;49.500;10.416;2024-03-02T09:04:24;11.30;67.20
81524;DHT22;70954;49.500;10.416;2024-03-02T09:06:50;11.40;67.10
81524;DHT22;70954;49.500;10.416;2024-03-02T09:09:15;11.50;66.90
81524;DHT22;70954;49.500;10.416;2024-03-02T09:11:41;11.60;66.70
81524;DHT22;70954;49.500;10.416;2024-03-02T09:14:06;11.70;66.50
81524;DHT22;70954;49.500;10.416;2024-03-02T09:16:32;11.80;66.40
81524;DHT22;70954;49.500;10.416;2024-03-02T09:18:57;11.90;66.20
81524;DHT22;70954;49.500;10.416;2024-03-02T09:21:23;11.90;65.80
81524;DHT22;70954;49.500;10.416;2024-03-02T09:23:48;12.00;65.70
81524;DHT22;70954;49.500;10.416;2024-03-02T09:26:14;12.10;65.50
81524;DHT22;70954;49.500;10.416;2024-03-02T09:28:43;12.20;65.30
81524;DHT22;70954;49.500;10.416;2024-03-02T09:31:09;12.30;65.10
81524;DHT22;70954;49.500;10.416;2024-03-02T09:33:34;12.50;65.00
81524;DHT22;70954;49.500;10.416;2024-03-02T09:35:59;12.50;64.80
81524;DHT22;70954;49.500;10.416;2024-03-02T09:38:25;12.60;64.30
81524;DHT22;70954;49.500;10.416;2024-03-02T09:40:50;12.70;64.10
81524;DHT22;70954;49.500;10.416;2024-03-02T09:43:16;12.80;63.90
81524;DHT22;70954;49.500;10.416;2024-03-02T09:45:42;12.90;63.70
81524;DHT22;70954;49.500;10.416;2024-03-02T09:48:07;12.90;63.70
81524;DHT22;70954;49.500;10.416;2024-03-02T09:50:33;13.00;63.70
81524;DHT22;70954;49.500;10.416;2024-03-02T09:52:59;13.10;63.60
81524;DHT22;70954;49.500;10.416;2024-03-02T09:55:24;13.20;63.50
81524;DHT22;70954;49.500;10.416;2024-03-02T09:57:50;13.30;63.20
81524;DHT22;70954;49.500;10.416;2024-03-02T10:00:16;13.40;63.00
81524;DHT22;70954;49.500;10.416;2024-03-02T10:02:42;13.50;62.90
81524;DHT22;70954;49.500;10.416;2024-03-02T10:05:11;13.60;62.70
81524;DHT22;70954;49.500;10.416;2024-03-02T10:07:36;13.60;62.60
81524;DHT22;70954;49.500;10.416;2024-03-02T10:10:20;13.80;62.40
81524;DHT22;70954;49.500;10.416;2024-03-02T10:12:45;13.90;61.70
81524;DHT22;70954;49.500;10.416;2024-03-02T10:15:11;13.90;61.90
81524;DHT22;70954;49.500;10.416;2024-03-02T10:17:36;14.00;61.70
81524;DHT22;70954;49.500;10.416;2024-03-02T10:20:21;14.10;61.60
81524;DHT22;70954;49.500;10.416;2024-03-02T10:22:47;14.20;60.30
81524;DHT22;70954;49.500;10.416;2024-03-02T10:25:31;14.30;61.00
81524;DHT22;70954;49.500;10.416;2024-03-02T10:28:01;14.40;60.00
81524;DHT22;70954;49.500;10.416;2024-03-02T10:30:27;14.40;60.30
81524;DHT22;70954;49.500;10.416;2024-03-02T10:32:54;14.50;60.00
81524;DHT22;70954;49.500;10.416;2024-03-02T10:35:20;14.50;59.70
81524;DHT22;70954;49.500;10.416;2024-03-02T10:37:48;14.60;59.60
81524;DHT22;70954;49.500;10.416;2024-03-02T10:40:14;14.60;59.40
81524;DHT22;70954;49.500;10.416;2024-03-02T10:42:44;14.70;59.10
81524;DHT22;70954;49.500;10.416;2024-03-02T10:45:10;14.80;59.30
81524;DHT22;70954;49.500;10.416;2024-03-02T10:47:38;14.80;59.10
81524;DHT22;70954;49.500;10.416;2024-03-02T10:50:04;14.80;59.00
81524;DHT22;70954;49.500;10.416;2024-03-02T10:52:30;14.90;58.60
81524;DHT22;70954;49.500;10.416;2024-03-02T10:54:56;15.00;58.70
81524;DHT22;70954;49.500;10.416;2024-03-02T10:57:22;15.00;58.50
81524;DHT22;70954;49.500;10.416;2024-03-02T10:59:52;15.00;58.50
81524;DHT22;70954;49.500;10.416;2024-03-02T11:02:22;15.20;58.30
81524;DHT22;70954;49.500;10.416;2024-03-02T11:04:50;15.20;58.20
81524;DHT22;70954;49.500;10.416;2024-03-02T11:07:20;15.20;58.00
81524;DHT22;70954;49.500;10.416;2024-03-02T11:09:54;15.30;57.50
81524;DHT22;70954;49.500;10.416;2024-03-02T11:12:51;15.40;56.70
81524;DHT22;70954;49.500;10.416;2024-03-02T11:15:18;15.40;56.30
81524;DHT22;70954;49.500;10.416;2024-03-02T11:17:44;15.40;57.20
81524;DHT22;70954;49.500;10.416;2024-03-02T11:20:10;15.50;56.90
81524;DHT22;70954;49.500;10.416;2024-03-02T11:22:36;15.50;56.90
81524;DHT22;70954;49.500;10.416;2024-03-02T11:25:02;15.60;56.80
81524;DHT22;70954;49.500;10.416;2024-03-02T11:35:28;15.80;55.70
81524;DHT22;70954;49.500;10.416;2024-03-02T11:37:54;15.80;55.60
81524;DHT22;70954;49.500;10.416;2024-03-02T11:40:24;15.80;55.10
81524;DHT22;70954;49.500;10.416;2024-03-02T11:42:50;15.80;55.10
81524;DHT22;70954;49.500;10.416;2024-03-02T11:45:28;15.80;55.30
81524;DHT22;70954;49.500;10.416;2024-03-02T11:47:55;15.90;54.80
81524;DHT22;70954;49.500;10.416;2024-03-02T11:50:30;15.90;55.00
81524;DHT22;70954;49.500;10.416;2024-03-02T11:52:57;16.00;54.70
81524;DHT22;70954;49.500;10.416;2024-03-02T11:55:25;16.00;55.00
81524;DHT22;70954;49.500;10.416;2024-03-02T11:57:52;16.00;54.80
81524;DHT22;70954;49.500;10.416;2024-03-02T12:00:18;16.10;54.70
81524;DHT22;70954;49.500;10.416;2024-03-02T12:02:46;16.10;54.60
81524;DHT22;70954;49.500;10.416;2024-03-02T12:05:13;16.20;54.10
81524;DHT22;70954;49.500;10.416;2024-03-02T12:07:39;16.20;54.40
81524;DHT22;70954;49.500;10.416;2024-03-02T12:10:05;16.20;54.00
81524;DHT22;70954;49.500;10.416;2024-03-02T12:12:31;16.30;54.00
81524;DHT22;70954;49.500;10.416;2024-03-02T12:14:56;16.40;53.80
81524;DHT22;70954;49.500;10.416;2024-03-02T12:17:22;16.40;53.60
81524;DHT22;70954;49.500;10.416;2024-03-02T12:19:48;16.40;53.60
81524;DHT22;70954;49.500;10.416;2024-03-02T12:22:14;16.40;53.30
81524;DHT22;70954;49.500;10.416;2024-03-02T12:24:39;16.40;53.10
81524;DHT22;70954;49.500;10.416;2024-03-02T12:27:06;16.40;53.20
81524;DHT22;70954;49.500;10.416;2024-03-02T12:29:32;16.40;53.30
81524;DHT22;70954;49.500;10.416;2024-03-02T12:31:59;16.40;53.30
81524;DHT22;70954;49.500;10.416;2024-03-02T12:34:26;16.50;52.90
81524;DHT22;70954;49.500;10.416;2024-03-02T12:36:51;16.50;53.10
81524;DHT22;70954;49.500;10.416;2024-03-02T12:39:18;16.50;53.10
81524;DHT22;70954;49.500;10.416;2024-03-02T12:41:44;16.50;53.10
81524;DHT22;70954;49.500;10.416;2024-03-02T12:44:10;16.60;52.90
81524;DHT22;70954;49.500;10.416;2024-03-02T12:46:35;16.60;52.90
81524;DHT22;70954;49.500;10.416;2024-03-02T12:49:08;16.60;52.50
81524;DHT22;70954;49.500;10.416;2024-03-02T12:51:34;16.60;52.20
81524;DHT22;70954;49.500;10.416;2024-03-02T12:54:00;16.60;52.60
81524;DHT22;70954;49.500;10.416;2024-03-02T12:56:26;16.60;52.30
81524;DHT22;70954;49.500;10.416;2024-03-02T12:58:55;16.60;52.30
81524;DHT22;70954;49.500;10.416;2024-03-02T13:01:20;16.60;52.20
81524;DHT22;70954;49.500;10.416;2024-03-02T13:03:49;16.60;52.10
81524;DHT22;70954;49.500;10.416;2024-03-02T13:06:14;16.60;52.10
81524;DHT22;70954;49.500;10.416;2024-03-02T13:08:40;16.60;52.20
81524;DHT22;70954;49.500;10.416;2024-03-02T13:11:05;16.60;52.00
81524;DHT22;70954;49.500;10.416;2024-03-02T13:13:31;16.60;52.00
81524;DHT22;70954;49.500;10.416;2024-03-02T13:15:56;16.60;51.70
81524;DHT22;70954;49.500;10.416;2024-03-02T13:18:22;16.60;51.60
81524;DHT22;70954;49.500;10.416;2024-03-02T13:20:48;16.60;51.60
81524;DHT22;70954;49.500;10.416;2024-03-02T13:23:13;16.50;51.60
81524;DHT22;70954;49.500;10.416;2024-03-02T13:25:39;16.50;51.70
81524;DHT22;70954;49.500;10.416;2024-03-02T13:28:05;16.50;51.70
81524;DHT22;70954;49.500;10.416;2024-03-02T13:30:31;16.50;51.80
81524;DHT22;70954;49.500;10.416;2024-03-02T13:32:56;16.50;51.60
81524;DHT22;70954;49.500;10.416;2024-03-02T13:35:22;16.50;51.40
81524;DHT22;70954;49.500;10.416;2024-03-02T13:37:47;16.40;51.40
81524;DHT22;70954;49.500;10.416;2024-03-02T13:40:13;16.40;51.30
81524;DHT22;70954;49.500;10.416;2024-03-02T13:42:39;16.40;51.20
81524;DHT22;70954;49.500;10.416;2024-03-02T13:45:40;16.40;51.20
81524;DHT22;70954;49.500;10.416;2024-03-02T13:48:05;16.40;50.30
81524;DHT22;70954;49.500;10.416;2024-03-02T13:50:31;16.30;50.70
81524;DHT22;70954;49.500;10.416;2024-03-02T13:52:57;16.30;51.00
81524;DHT22;70954;49.500;10.416;2024-03-02T13:55:22;16.20;51.10
81524;DHT22;70954;49.500;10.416;2024-03-02T13:57:48;16.20;51.10
81524;DHT22;70954;49.500;10.416;2024-03-02T14:00:14;16.20;51.10
81524;DHT22;70954;49.500;10.416;2024-03-02T14:02:39;16.20;51.10
81524;DHT22;70954;49.500;10.416;2024-03-02T14:05:05;16.20;51.20
81524;DHT22;70954;49.500;10.416;2024-03-02T14:07:31;16.10;51.30
81524;DHT22;70954;49.500;10.416;2024-03-02T14:09:56;16.10;51.50
81524;DHT22;70954;49.500;10.416;2024-03-02T14:12:21;16.10;51.50
81524;DHT22;70954;49.500;10.416;2024-03-02T14:14:47;16.10;51.50
81524;DHT22;70954;49.500;10.416;2024-03-02T14:17:12;16.10;51.50
81524;DHT22;70954;49.500;10.416;2024-03-02T14:19:38;16.10;51.40
81524;DHT22;70954;49.500;10.416;2024-03-02T14:22:03;16.10;51.50
81524;DHT22;70954;49.500;10.416;2024-03-02T14:24:29;16.10;51.40
81524;DHT22;70954;49.500;10.416;2024-03-02T14:26:55;16.10;51.40
81524;DHT22;70954;49.500;10.416;2024-03-02T14:29:20;16.10;51.20
81524;DHT22;70954;49.500;10.416;2024-03-02T14:31:46;16.10;51.30
81524;DHT22;70954;49.500;10.416;2024-03-02T14:34:11;16.10;51.00
81524;DHT22;70954;49.500;10.416;2024-03-02T14:36:36;16.10;51.10
81524;DHT22;70954;49.500;10.416;2024-03-02T14:39:02;16.00;50.90
81524;DHT22;70954;49.500;10.416;2024-03-02T14:41:27;16.00;50.90
81524;DHT22;70954;49.500;10.416;2024-03-02T14:43:53;16.00;50.40
81524;DHT22;70954;49.500;10.416;2024-03-02T14:46:19;16.00;50.70
81524;DHT22;70954;49.500;10.416;2024-03-02T14:48:46;16.00;50.70
81524;DHT22;70954;49.500;10.416;2024-03-02T14:51:11;16.00;50.80
81524;DHT22;70954;49.500;10.416;2024-03-02T14:53:37;16.00;50.60
81524;DHT22;70954;49.500;10.416;2024-03-02T14:56:02;16.00;50.80
81524;DHT22;70954;49.500;10.416;2024-03-02T14:58:28;15.90;50.80
81524;DHT22;70954;49.500;10.416;2024-03-02T15:00:53;15.90;50.90
81524;DHT22;70954;49.500;10.416;2024-03-02T15:03:19;15.90;50.90
81524;DHT22;70954;49.500;10.416;2024-03-02T15:05:44;15.80;50.70
81524;DHT22;70954;49.500;10.416;2024-03-02T15:08:10;15.80;50.70
81524;DHT22;70954;49.500;10.416;2024-03-02T15:10:36;15.80;50.90
81524;DHT22;70954;49.500;10.416;2024-03-02T15:13:02;15.80;50.80
81524;DHT22;70954;49.500;10.416;2024-03-02T15:15:28;15.80;50.80
81524;DHT22;70954;49.500;10.416;2024-03-02T15:17:54;15.80;50.80
81524;DHT22;70954;49.500;10.416;2024-03-02T15:20:20;15.80;50.80
81524;DHT22;70954;49.500;10.416;2024-03-02T15:22:45;15.80;50.70
81524;DHT22;70954;49.500;10.416;2024-03-02T15:25:11;15.80;50.70
81524;DHT22;70954;49.500;10.416;2024-03-02T15:27:38;15.80;50.70
81524;DHT22;70954;49.500;10.416;2024-03-02T15:30:04;15.70;50.70